createdAt,value
2018-11-27T00:00:22.552Z,933.62
2018-11-27T00:01:22.509Z,933.59
2018-11-27T00:02:22.448Z,933.62
2018-11-27T00:03:22.421Z,933.62
2018-11-27T00:04:22.352Z,933.69
2018-11-27T00:05:22.304Z,933.69
2018-11-27T00:06:22.269Z,933.62
2018-11-27T00:07:22.221Z,933.70
2018-11-27T00:08:22.162Z,933.66
2018-11-27T00:09:22.131Z,933.65
2018-11-27T00:10:22.085Z,933.65
2018-11-27T00:11:22.038Z,933.65
2018-11-27T00:12:21.989Z,933.69
2018-11-27T00:13:21.932Z,933.67
2018-11-27T00:14:21.879Z,933.63
2018-11-27T00:15:21.845Z,933.65
2018-11-27T00:16:21.776Z,933.63
2018-11-27T00:17:21.727Z,933.60
2018-11-27T00:18:21.687Z,933.69
2018-11-27T00:19:21.642Z,933.73
2018-11-27T00:20:21.604Z,933.70
2018-11-27T00:21:21.545Z,933.69
2018-11-27T00:22:21.499Z,933.70
2018-11-27T00:23:21.447Z,933.76
2018-11-27T00:24:21.399Z,933.78
2018-11-27T00:25:21.363Z,933.74
2018-11-27T00:26:21.302Z,933.77
2018-11-27T00:27:21.253Z,933.79
2018-11-27T00:28:21.219Z,933.70
2018-11-27T00:29:21.160Z,933.71
2018-11-27T00:30:21.110Z,933.73
2018-11-27T00:31:21.055Z,933.73
2018-11-27T00:32:21.018Z,933.77
2018-11-27T00:33:20.958Z,933.79
2018-11-27T00:34:20.911Z,933.71
2018-11-27T00:35:20.873Z,933.72
2018-11-27T00:36:20.820Z,933.76
2018-11-27T00:37:20.785Z,933.78
2018-11-27T00:38:20.737Z,933.76
2018-11-27T00:39:20.668Z,933.76
2018-11-27T00:40:20.641Z,933.71
2018-11-27T00:41:20.571Z,933.74
2018-11-27T00:42:20.544Z,933.76
2018-11-27T00:43:20.496Z,933.69
2018-11-27T00:44:20.435Z,933.72
2018-11-27T00:45:20.387Z,933.76
2018-11-27T00:46:20.331Z,933.73
2018-11-27T00:47:20.295Z,933.74
2018-11-27T00:48:20.247Z,933.78
2018-11-27T00:49:20.199Z,933.75
2018-11-27T00:50:20.170Z,933.80
2018-11-27T00:51:20.098Z,933.76
2018-11-27T00:52:20.063Z,933.79
2018-11-27T00:53:20.014Z,933.79
2018-11-27T00:54:20.086Z,933.81
2018-11-27T00:55:19.910Z,933.81
2018-11-27T00:56:19.858Z,933.88
2018-11-27T00:57:19.813Z,933.88
2018-11-27T00:58:19.774Z,933.83
2018-11-27T00:59:19.720Z,933.83
2018-11-27T01:00:19.683Z,933.81
2018-11-27T01:01:19.629Z,933.83
2018-11-27T01:02:19.574Z,933.87
2018-11-27T01:03:19.526Z,933.88
2018-11-27T01:04:19.463Z,933.90
2018-11-27T01:05:19.424Z,933.88
2018-11-27T01:06:19.376Z,933.84
2018-11-27T01:07:19.332Z,933.87
2018-11-27T01:08:19.280Z,933.87
2018-11-27T01:09:19.235Z,933.80
2018-11-27T01:10:19.188Z,933.77
2018-11-27T01:11:19.135Z,933.80
2018-11-27T01:12:19.100Z,933.78
2018-11-27T01:13:19.045Z,933.80
2018-11-27T01:14:18.994Z,933.81
2018-11-27T01:15:18.935Z,933.89
2018-11-27T01:16:18.893Z,933.86
2018-11-27T01:17:18.858Z,933.82
2018-11-27T01:18:18.815Z,933.75
2018-11-27T01:19:18.749Z,933.85
2018-11-27T01:20:18.700Z,933.80
2018-11-27T01:21:18.657Z,933.76
2018-11-27T01:22:18.600Z,933.84
2018-11-27T01:23:18.560Z,933.97
2018-11-27T01:24:18.511Z,933.86
2018-11-27T01:25:18.463Z,933.81
2018-11-27T01:26:18.416Z,933.87
2018-11-27T01:27:18.376Z,933.82
2018-11-27T01:28:18.319Z,933.85
2018-11-27T01:29:18.271Z,933.83
2018-11-27T01:30:18.217Z,933.86
2018-11-27T01:31:18.174Z,933.83
2018-11-27T01:32:18.134Z,933.80
2018-11-27T01:33:18.072Z,933.83
2018-11-27T01:34:18.037Z,933.86
2018-11-27T01:35:17.976Z,933.79
2018-11-27T01:36:17.919Z,933.82
2018-11-27T01:37:17.884Z,933.78
2018-11-27T01:38:17.831Z,933.82
2018-11-27T01:39:17.775Z,933.83
2018-11-27T01:40:17.729Z,933.82
2018-11-27T01:41:17.678Z,933.84
2018-11-27T01:42:17.629Z,933.82
2018-11-27T01:43:17.602Z,933.83
2018-11-27T01:44:17.533Z,933.81
2018-11-27T01:45:17.498Z,933.81
2018-11-27T01:46:17.458Z,933.84
2018-11-27T01:47:17.410Z,933.85
2018-11-27T01:48:17.349Z,933.81
2018-11-27T01:49:17.294Z,933.80
2018-11-27T01:50:17.465Z,933.80
2018-11-27T01:51:17.208Z,933.78
2018-11-27T01:52:17.156Z,933.81
2018-11-27T01:53:17.121Z,933.77
2018-11-27T01:54:17.073Z,933.77
2018-11-27T01:55:17.012Z,933.71
2018-11-27T01:56:16.964Z,933.70
2018-11-27T01:57:16.915Z,933.73
2018-11-27T01:58:16.867Z,933.78
2018-11-27T01:59:16.832Z,933.76
2018-11-27T02:00:16.766Z,933.80
2018-11-27T02:01:16.714Z,933.79
2018-11-27T02:02:16.675Z,933.80
2018-11-27T02:03:16.631Z,933.83
2018-11-27T02:04:16.570Z,933.84
2018-11-27T02:05:16.537Z,933.86
2018-11-27T02:06:16.495Z,933.91
2018-11-27T02:07:16.440Z,933.86
2018-11-27T02:08:16.392Z,933.94
2018-11-27T02:09:16.337Z,933.88
2018-11-27T02:10:16.290Z,933.85
2018-11-27T02:11:16.256Z,933.81
2018-11-27T02:12:16.206Z,933.81
2018-11-27T02:13:16.151Z,933.85
2018-11-27T02:14:16.110Z,933.84
2018-11-27T02:15:16.053Z,933.82
2018-11-27T02:16:16.013Z,933.80
2018-11-27T02:17:15.958Z,933.83
2018-11-27T02:18:15.909Z,933.81
2018-11-27T02:19:15.869Z,933.83
2018-11-27T02:20:15.823Z,933.82
2018-11-27T02:21:15.753Z,933.84
2018-11-27T02:22:15.704Z,933.79
2018-11-27T02:23:15.668Z,933.81
2018-11-27T02:24:15.620Z,933.83
2018-11-27T02:25:15.582Z,933.84
2018-11-27T02:26:15.519Z,933.86
2018-11-27T02:27:15.475Z,933.87
2018-11-27T02:28:15.415Z,933.89
2018-11-27T02:29:15.374Z,933.88
2018-11-27T02:30:15.333Z,933.90
2018-11-27T02:31:15.292Z,933.88
2018-11-27T02:32:15.222Z,933.84
2018-11-27T02:33:15.174Z,933.81
2018-11-27T02:34:15.150Z,933.81
2018-11-27T02:35:15.090Z,933.80
2018-11-27T02:36:15.051Z,933.77
2018-11-27T02:37:14.981Z,933.79
2018-11-27T02:38:14.948Z,933.80
2018-11-27T02:39:14.903Z,933.78
2018-11-27T02:40:14.858Z,933.76
2018-11-27T02:41:14.791Z,933.79
2018-11-27T02:42:14.753Z,933.79
2018-11-27T02:43:14.718Z,933.83
2018-11-27T02:44:14.666Z,933.80
2018-11-27T02:45:14.801Z,933.75
2018-11-27T02:46:14.549Z,933.80
2018-11-27T02:47:14.510Z,933.77
2018-11-27T02:48:14.462Z,933.75
2018-11-27T02:49:14.413Z,933.78
2018-11-27T02:50:14.372Z,933.77
2018-11-27T02:51:14.321Z,933.73
2018-11-27T02:52:14.262Z,933.73
2018-11-27T02:53:14.226Z,933.74
2018-11-27T02:54:14.164Z,933.63
2018-11-27T02:55:14.126Z,933.65
2018-11-27T02:56:14.069Z,933.65
2018-11-27T02:57:14.021Z,933.65
2018-11-27T02:58:13.994Z,933.64
2018-11-27T02:59:13.925Z,933.62
2018-11-27T03:00:13.899Z,933.64
2018-11-27T03:01:13.829Z,933.61
2018-11-27T03:02:13.790Z,933.63
2018-11-27T03:03:13.742Z,933.57
2018-11-27T03:04:13.686Z,933.52
2018-11-27T03:05:13.644Z,933.52
2018-11-27T03:06:13.596Z,933.51
2018-11-27T03:07:13.541Z,933.52
2018-11-27T03:08:13.513Z,933.56
2018-11-27T03:09:13.453Z,933.57
2018-11-27T03:10:13.419Z,933.56
2018-11-27T03:11:13.365Z,933.54
2018-11-27T03:12:13.315Z,933.55
2018-11-27T03:13:13.283Z,933.57
2018-11-27T03:14:13.225Z,933.53
2018-11-27T03:15:13.164Z,933.56
2018-11-27T03:16:13.116Z,933.52
2018-11-27T03:17:13.068Z,933.51
2018-11-27T03:18:13.013Z,933.49
2018-11-27T03:19:12.972Z,933.46
2018-11-27T03:20:12.915Z,933.45
2018-11-27T03:21:12.877Z,933.46
2018-11-27T03:22:12.834Z,933.51
2018-11-27T03:23:12.778Z,933.47
2018-11-27T03:24:12.744Z,933.45
2018-11-27T03:25:12.689Z,933.41
2018-11-27T03:26:12.627Z,933.41
2018-11-27T03:27:12.582Z,933.38
2018-11-27T03:28:12.543Z,933.31
2018-11-27T03:29:12.505Z,933.34
2018-11-27T03:30:12.447Z,933.29
2018-11-27T03:31:12.396Z,933.24
2018-11-27T03:32:12.352Z,933.24
2018-11-27T03:33:12.300Z,933.27
2018-11-27T03:34:12.258Z,933.26
2018-11-27T03:35:12.395Z,933.29
2018-11-27T03:36:12.160Z,933.30
2018-11-27T03:37:12.119Z,933.27
2018-11-27T03:38:12.060Z,933.26
2018-11-27T03:39:12.003Z,933.30
2018-11-27T03:40:11.975Z,933.23
2018-11-27T03:41:11.918Z,933.20
2018-11-27T03:42:11.865Z,933.14
2018-11-27T03:43:11.821Z,933.12
2018-11-27T03:44:11.769Z,933.13
2018-11-27T03:45:11.712Z,933.07
2018-11-27T03:46:11.664Z,933.04
2018-11-27T03:47:11.625Z,933.05
2018-11-27T03:48:11.577Z,933.03
2018-11-27T03:49:11.519Z,932.98
2018-11-27T03:50:11.497Z,932.96
2018-11-27T03:51:11.445Z,932.93
2018-11-27T03:52:11.385Z,932.94
2018-11-27T03:53:11.328Z,932.93
2018-11-27T03:54:11.280Z,932.94
2018-11-27T03:55:11.246Z,932.94
2018-11-27T03:56:11.192Z,932.91
2018-11-27T03:57:11.134Z,932.85
2018-11-27T03:58:11.108Z,932.90
2018-11-27T03:59:11.060Z,932.84
2018-11-27T04:00:10.999Z,932.84
2018-11-27T04:01:10.963Z,932.79
2018-11-27T04:02:10.915Z,932.78
2018-11-27T04:03:10.859Z,932.75
2018-11-27T04:04:10.819Z,932.78
2018-11-27T04:05:10.771Z,932.78
2018-11-27T04:06:10.924Z,932.76
2018-11-27T04:07:10.662Z,932.73
2018-11-27T04:08:10.610Z,932.72
2018-11-27T04:09:10.556Z,932.71
2018-11-27T04:10:10.532Z,932.75
2018-11-27T04:11:10.469Z,932.76
2018-11-27T04:12:10.435Z,932.68
2018-11-27T04:13:10.374Z,932.69
2018-11-27T04:14:10.316Z,932.77
2018-11-27T04:15:10.283Z,932.73
2018-11-27T04:16:10.228Z,932.76
2018-11-27T04:17:10.180Z,932.75
2018-11-27T04:18:10.147Z,932.72
2018-11-27T04:19:10.078Z,932.69
2018-11-27T04:20:10.053Z,932.64
2018-11-27T04:21:10.000Z,932.69
2018-11-27T04:22:09.930Z,932.61
2018-11-27T04:23:09.904Z,932.62
2018-11-27T04:24:09.842Z,932.57
2018-11-27T04:25:09.799Z,932.61
2018-11-27T04:26:09.738Z,932.60
2018-11-27T04:27:09.703Z,932.57
2018-11-27T04:28:09.642Z,932.53
2018-11-27T04:29:09.615Z,932.56
2018-11-27T04:30:09.554Z,932.51
2018-11-27T04:31:09.510Z,932.57
2018-11-27T04:32:09.477Z,932.53
2018-11-27T04:33:09.415Z,932.54
2018-11-27T04:34:09.361Z,932.52
2018-11-27T04:35:09.312Z,932.47
2018-11-27T04:36:09.267Z,932.46
2018-11-27T04:37:09.221Z,932.39
2018-11-27T04:38:09.173Z,932.40
2018-11-27T04:39:09.111Z,932.38
2018-11-27T04:40:09.084Z,932.37
2018-11-27T04:41:09.032Z,932.41
2018-11-27T04:42:08.990Z,932.39
2018-11-27T04:43:08.926Z,932.43
2018-11-27T04:44:08.879Z,932.39
2018-11-27T04:45:08.844Z,932.41
2018-11-27T04:46:08.794Z,932.45
2018-11-27T04:47:08.738Z,932.47
2018-11-27T04:48:08.685Z,932.47
2018-11-27T04:49:08.639Z,932.49
2018-11-27T04:50:08.593Z,932.41
2018-11-27T04:51:08.531Z,932.43
2018-11-27T04:52:08.506Z,932.39
2018-11-27T04:53:08.448Z,932.40
2018-11-27T04:54:08.396Z,932.39
2018-11-27T04:55:08.360Z,932.38
2018-11-27T04:56:08.292Z,932.39
2018-11-27T04:57:08.258Z,932.38
2018-11-27T04:58:08.201Z,932.36
2018-11-27T04:59:08.167Z,932.39
2018-11-27T05:00:08.097Z,932.36
2018-11-27T05:01:08.071Z,932.41
2018-11-27T05:02:08.009Z,932.45
2018-11-27T05:03:07.952Z,932.43
2018-11-27T05:04:07.904Z,932.48
2018-11-27T05:05:07.868Z,932.42
2018-11-27T05:06:07.828Z,932.43
2018-11-27T05:07:07.772Z,932.44
2018-11-27T05:08:07.711Z,932.45
2018-11-27T05:09:07.680Z,932.42
2018-11-27T05:10:07.627Z,932.46
2018-11-27T05:11:07.600Z,932.46
2018-11-27T05:12:07.526Z,932.44
2018-11-27T05:13:07.482Z,932.50
2018-11-27T05:14:07.421Z,932.44
2018-11-27T05:15:07.394Z,932.42
2018-11-27T05:16:07.324Z,932.39
2018-11-27T05:17:07.285Z,932.38
2018-11-27T05:18:07.251Z,932.43
2018-11-27T05:19:07.189Z,932.37
2018-11-27T05:20:07.152Z,932.42
2018-11-27T05:21:07.096Z,932.44
2018-11-27T05:22:07.035Z,932.34
2018-11-27T05:23:07.007Z,932.37
2018-11-27T05:24:06.954Z,932.40
2018-11-27T05:25:06.910Z,932.36
2018-11-27T05:26:06.862Z,932.35
2018-11-27T05:27:06.814Z,932.33
2018-11-27T05:28:06.756Z,932.33
2018-11-27T05:29:06.717Z,932.32
2018-11-27T05:30:06.661Z,932.32
2018-11-27T05:31:06.613Z,932.38
2018-11-27T05:32:06.577Z,932.37
2018-11-27T05:33:06.516Z,932.36
2018-11-27T05:34:06.456Z,932.35
2018-11-27T05:35:06.419Z,932.35
2018-11-27T05:36:06.380Z,932.33
2018-11-27T05:37:06.322Z,932.28
2018-11-27T05:38:06.270Z,932.31
2018-11-27T05:39:06.221Z,932.30
2018-11-27T05:40:06.173Z,932.33
2018-11-27T05:41:06.116Z,932.33
2018-11-27T05:42:06.089Z,932.37
2018-11-27T05:43:06.027Z,932.34
2018-11-27T05:44:05.980Z,932.35
2018-11-27T05:45:05.944Z,932.32
2018-11-27T05:46:05.874Z,932.32
2018-11-27T05:47:05.838Z,932.34
2018-11-27T05:48:05.790Z,932.29
2018-11-27T05:49:05.750Z,932.34
2018-11-27T05:50:05.693Z,932.34
2018-11-27T05:51:05.632Z,932.34
2018-11-27T05:52:05.584Z,932.38
2018-11-27T05:53:05.535Z,932.32
2018-11-27T05:54:05.487Z,932.34
2018-11-27T05:55:05.452Z,932.37
2018-11-27T05:56:05.412Z,932.37
2018-11-27T05:57:05.342Z,932.38
2018-11-27T05:58:05.317Z,932.35
2018-11-27T05:59:05.245Z,932.39
2018-11-27T06:00:05.205Z,932.40
2018-11-27T06:01:05.150Z,932.41
2018-11-27T06:02:05.112Z,932.38
2018-11-27T06:03:05.073Z,932.36
2018-11-27T06:04:05.018Z,932.35
2018-11-27T06:05:04.955Z,932.32
2018-11-27T06:06:04.906Z,932.33
2018-11-27T06:07:04.858Z,932.31
2018-11-27T06:08:04.815Z,932.29
2018-11-27T06:09:04.761Z,932.28
2018-11-27T06:10:04.725Z,932.27
2018-11-27T06:11:04.677Z,932.28
2018-11-27T06:12:04.638Z,932.29
2018-11-27T06:13:04.568Z,932.30
2018-11-27T06:14:04.521Z,932.30
2018-11-27T06:15:04.484Z,932.30
2018-11-27T06:16:04.444Z,932.28
2018-11-27T06:17:04.387Z,932.32
2018-11-27T06:18:04.347Z,932.31
2018-11-27T06:19:04.285Z,932.28
2018-11-27T06:20:04.277Z,932.31
2018-11-27T06:21:04.202Z,932.29
2018-11-27T06:22:04.133Z,932.28
2018-11-27T06:23:04.105Z,932.26
2018-11-27T06:24:04.049Z,932.26
2018-11-27T06:25:03.988Z,932.23
2018-11-27T06:26:03.952Z,932.25
2018-11-27T06:27:03.891Z,932.21
2018-11-27T06:28:03.864Z,932.28
2018-11-27T06:29:03.794Z,932.27
2018-11-27T06:30:03.754Z,932.26
2018-11-27T06:31:03.705Z,932.28
2018-11-27T06:32:03.661Z,932.34
2018-11-27T06:33:03.600Z,932.33
2018-11-27T06:34:03.573Z,932.36
2018-11-27T06:35:03.517Z,932.38
2018-11-27T06:36:03.476Z,932.39
2018-11-27T06:37:03.415Z,932.44
2018-11-27T06:38:03.358Z,932.45
2018-11-27T06:39:03.318Z,932.43
2018-11-27T06:40:03.262Z,932.45
2018-11-27T06:41:03.228Z,932.47
2018-11-27T06:42:03.176Z,932.41
2018-11-27T06:43:03.125Z,932.42
2018-11-27T06:44:03.082Z,932.41
2018-11-27T06:45:03.033Z,932.41
2018-11-27T06:46:02.984Z,932.38
2018-11-27T06:47:02.923Z,932.39
2018-11-27T06:48:02.874Z,932.42
2018-11-27T06:49:02.860Z,932.41
2018-11-27T06:50:02.786Z,932.42
2018-11-27T06:51:02.751Z,932.41
2018-11-27T06:52:02.752Z,932.40
2018-11-27T06:53:02.633Z,932.40
2018-11-27T06:54:02.589Z,932.39
2018-11-27T06:55:02.536Z,932.38
2018-11-27T06:56:02.509Z,932.43
2018-11-27T06:57:02.464Z,932.41
2018-11-27T06:58:02.394Z,932.40
2018-11-27T06:59:02.351Z,932.41
2018-11-27T07:00:02.307Z,932.42
2018-11-27T07:01:02.269Z,932.40
2018-11-27T07:02:02.198Z,932.39
2018-11-27T07:03:02.157Z,932.41
2018-11-27T07:04:02.110Z,932.39
2018-11-27T07:05:02.074Z,932.41
2018-11-27T07:06:02.019Z,932.42
2018-11-27T07:07:01.981Z,932.41
2018-11-27T07:08:01.912Z,932.41
2018-11-27T07:09:01.860Z,932.42
2018-11-27T07:10:01.834Z,932.45
2018-11-27T07:11:01.775Z,932.45
2018-11-27T07:12:01.718Z,932.45
2018-11-27T07:13:01.670Z,932.47
2018-11-27T07:14:01.618Z,932.44
2018-11-27T07:15:01.579Z,932.44
2018-11-27T07:16:01.542Z,932.45
2018-11-27T07:17:01.473Z,932.41
2018-11-27T07:18:01.434Z,932.41
2018-11-27T07:19:01.387Z,932.46
2018-11-27T07:20:01.338Z,932.42
2018-11-27T07:21:01.288Z,932.40
2018-11-27T07:22:01.232Z,932.44
2018-11-27T07:23:01.197Z,932.38
2018-11-27T07:24:01.143Z,932.45
2018-11-27T07:25:01.108Z,932.40
2018-11-27T07:26:01.060Z,932.46
2018-11-27T07:27:00.991Z,932.47
2018-11-27T07:28:00.942Z,932.45
2018-11-27T07:29:00.915Z,932.46
2018-11-27T07:30:00.867Z,932.42
2018-11-27T07:31:00.813Z,932.45
2018-11-27T07:32:00.780Z,932.38
2018-11-27T07:33:00.710Z,932.39
2018-11-27T07:34:00.666Z,932.38
2018-11-27T07:35:00.617Z,932.42
2018-11-27T07:36:00.578Z,932.40
2018-11-27T07:37:00.529Z,932.43
2018-11-27T07:38:00.468Z,932.47
2018-11-27T07:39:00.432Z,932.45
2018-11-27T07:40:03.306Z,932.46
2018-11-27T07:41:00.323Z,932.45
2018-11-27T07:42:00.274Z,932.43
2018-11-27T07:43:00.240Z,932.45
2018-11-27T07:44:00.191Z,932.45
2018-11-27T07:45:00.143Z,932.49
2018-11-27T07:46:00.081Z,932.46
2018-11-27T07:47:00.025Z,932.50
2018-11-27T07:47:59.990Z,932.48
2018-11-27T07:48:59.935Z,932.46
2018-11-27T07:49:59.902Z,932.51
2018-11-27T07:50:59.855Z,932.53
2018-11-27T07:51:59.784Z,932.50
2018-11-27T07:52:59.749Z,932.55
2018-11-27T07:53:59.708Z,932.55
2018-11-27T07:54:59.639Z,932.54
2018-11-27T07:55:59.591Z,932.52
2018-11-27T07:56:59.563Z,932.55
2018-11-27T07:57:59.507Z,932.59
2018-11-27T07:58:59.459Z,932.61
2018-11-27T07:59:59.411Z,932.67
2018-11-27T08:00:59.371Z,932.64
2018-11-27T08:01:59.325Z,932.67
2018-11-27T08:02:59.275Z,932.70
2018-11-27T08:03:59.227Z,932.72
2018-11-27T08:04:59.157Z,932.72
2018-11-27T08:05:59.123Z,932.76
2018-11-27T08:06:59.070Z,932.69
2018-11-27T08:07:59.014Z,932.76
2018-11-27T08:08:58.966Z,932.74
2018-11-27T08:09:58.938Z,932.77
2018-11-27T08:10:58.876Z,932.82
2018-11-27T08:11:58.842Z,932.83
2018-11-27T08:12:58.788Z,932.81
2018-11-27T08:13:58.745Z,932.85
2018-11-27T08:14:58.688Z,932.84
2018-11-27T08:15:58.635Z,932.88
2018-11-27T08:16:58.601Z,932.88
2018-11-27T08:17:58.548Z,932.90
2018-11-27T08:18:58.497Z,932.90
2018-11-27T08:19:58.456Z,932.91
2018-11-27T08:20:58.396Z,932.89
2018-11-27T08:21:58.361Z,932.98
2018-11-27T08:22:58.306Z,932.93
2018-11-27T08:23:58.244Z,932.94
2018-11-27T08:24:58.204Z,932.98
2018-11-27T08:25:58.160Z,933.02
2018-11-27T08:26:58.107Z,932.98
2018-11-27T08:27:58.059Z,932.98
2018-11-27T08:28:58.024Z,932.98
2018-11-27T08:29:57.975Z,933.01
2018-11-27T08:30:57.919Z,933.04
2018-11-27T08:31:57.859Z,933.07
2018-11-27T08:32:57.817Z,933.06
2018-11-27T08:33:57.775Z,933.06
2018-11-27T08:34:57.728Z,933.08
2018-11-27T08:35:57.689Z,933.13
2018-11-27T08:36:57.632Z,933.17
2018-11-27T08:37:57.594Z,933.14
2018-11-27T08:38:57.530Z,933.17
2018-11-27T08:39:57.483Z,933.23
2018-11-27T08:40:57.433Z,933.22
2018-11-27T08:41:57.391Z,933.26
2018-11-27T08:42:57.333Z,933.24
2018-11-27T08:43:57.294Z,933.27
2018-11-27T08:44:57.247Z,933.30
2018-11-27T08:45:57.197Z,933.30
2018-11-27T08:46:57.158Z,933.29
2018-11-27T08:47:57.113Z,933.31
2018-11-27T08:48:57.051Z,933.31
2018-11-27T08:49:57.015Z,933.29
2018-11-27T08:50:56.956Z,933.32
2018-11-27T08:51:56.912Z,933.30
2018-11-27T08:52:56.853Z,933.32
2018-11-27T08:53:56.811Z,933.33
2018-11-27T08:54:56.775Z,933.29
2018-11-27T08:55:56.708Z,933.31
2018-11-27T08:56:56.683Z,933.36
2018-11-27T08:57:56.625Z,933.36
2018-11-27T08:58:56.577Z,933.34
2018-11-27T08:59:56.522Z,933.33
2018-11-27T09:00:56.492Z,933.36
2018-11-27T09:01:56.427Z,933.35
2018-11-27T09:02:56.380Z,933.38
2018-11-27T09:03:56.339Z,933.40
2018-11-27T09:04:56.345Z,933.33
2018-11-27T09:05:56.250Z,933.42
2018-11-27T09:06:56.199Z,933.41
2018-11-27T09:07:56.157Z,933.41
2018-11-27T09:08:56.101Z,933.38
2018-11-27T09:09:56.036Z,933.39
2018-11-27T09:10:55.988Z,933.39
2018-11-27T09:11:55.963Z,933.41
2018-11-27T09:12:55.915Z,933.52
2018-11-27T09:13:55.860Z,933.46
2018-11-27T09:14:55.806Z,933.54
2018-11-27T09:15:55.773Z,933.55
2018-11-27T09:16:55.702Z,933.55
2018-11-27T09:17:55.668Z,933.59
2018-11-27T09:18:55.606Z,933.64
2018-11-27T09:19:55.559Z,933.61
2018-11-27T09:20:55.521Z,933.63
2018-11-27T09:21:55.466Z,933.67
2018-11-27T09:22:55.431Z,933.68
2018-11-27T09:23:55.369Z,933.62
2018-11-27T09:24:55.334Z,933.67
2018-11-27T09:25:55.572Z,933.69
2018-11-27T09:26:55.239Z,933.72
2018-11-27T09:27:55.185Z,933.76
2018-11-27T09:28:55.130Z,933.82
2018-11-27T09:29:55.091Z,933.82
2018-11-27T09:30:55.055Z,933.86
2018-11-27T09:31:55.288Z,933.85
2018-11-27T09:32:54.947Z,933.90
2018-11-27T09:33:54.891Z,933.91
2018-11-27T09:34:54.864Z,933.94
2018-11-27T09:35:54.798Z,934.00
2018-11-27T09:36:54.770Z,933.97
2018-11-27T09:37:55.014Z,933.99
2018-11-27T09:38:54.658Z,934.03
2018-11-27T09:39:54.614Z,934.05
2018-11-27T09:40:54.579Z,934.02
2018-11-27T09:41:54.510Z,934.01
2018-11-27T09:42:54.493Z,933.99
2018-11-27T09:43:54.727Z,933.94
2018-11-27T09:44:54.383Z,934.00
2018-11-27T09:45:54.334Z,934.00
2018-11-27T09:46:54.295Z,933.96
2018-11-27T09:47:54.226Z,933.99
2018-11-27T09:48:54.201Z,933.98
2018-11-27T09:49:54.433Z,934.04
2018-11-27T09:50:54.094Z,934.09
2018-11-27T09:51:54.058Z,934.22
2018-11-27T09:52:53.999Z,934.21
2018-11-27T09:53:53.950Z,934.19
2018-11-27T09:54:53.898Z,934.24
2018-11-27T09:55:54.163Z,934.29
2018-11-27T09:56:53.810Z,934.30
2018-11-27T09:57:58.818Z,934.36
2018-11-27T09:58:53.732Z,934.31
2018-11-27T09:59:53.684Z,934.34
2018-11-27T10:00:53.630Z,934.36
2018-11-27T10:01:53.829Z,934.36
2018-11-27T10:02:53.542Z,934.38
2018-11-27T10:03:53.480Z,934.40
2018-11-27T10:04:53.456Z,934.42
2018-11-27T10:05:53.405Z,934.44
2018-11-27T10:06:53.357Z,934.41
2018-11-27T10:07:53.614Z,934.42
2018-11-27T10:08:53.275Z,934.42
2018-11-27T10:09:53.228Z,934.45
2018-11-27T10:10:53.181Z,934.42
2018-11-27T10:11:53.122Z,934.43
2018-11-27T10:12:53.102Z,934.43
2018-11-27T10:13:53.340Z,934.47
2018-11-27T10:14:53.061Z,934.49
2018-11-27T10:15:52.941Z,934.45
2018-11-27T10:16:52.920Z,934.46
2018-11-27T10:17:52.865Z,934.48
2018-11-27T10:18:52.952Z,934.59
2018-11-27T10:19:53.117Z,934.53
2018-11-27T10:20:52.733Z,934.48
2018-11-27T10:21:52.680Z,934.57
2018-11-27T10:22:52.635Z,934.63
2018-11-27T10:23:52.581Z,934.57
2018-11-27T10:24:53.125Z,934.57
2018-11-27T10:25:52.805Z,934.53
2018-11-27T10:26:52.446Z,934.53
2018-11-27T10:27:52.455Z,934.53
2018-11-27T10:28:52.356Z,934.50
2018-11-27T10:29:52.325Z,934.54
2018-11-27T10:30:52.278Z,934.56
2018-11-27T10:31:52.541Z,934.53
2018-11-27T10:32:52.191Z,934.53
2018-11-27T10:33:52.137Z,934.51
2018-11-27T10:34:52.090Z,934.51
2018-11-27T10:35:52.131Z,934.59
2018-11-27T10:36:51.999Z,934.54
2018-11-27T10:37:52.268Z,934.50
2018-11-27T10:38:51.913Z,934.54
2018-11-27T10:39:51.854Z,934.52
2018-11-27T10:40:51.829Z,934.56
2018-11-27T10:41:51.792Z,934.58
2018-11-27T10:42:51.814Z,934.56
2018-11-27T10:43:51.779Z,934.58
2018-11-27T10:44:51.624Z,934.62
2018-11-27T10:45:51.599Z,934.58
2018-11-27T10:46:51.549Z,934.62
2018-11-27T10:47:51.506Z,934.58
2018-11-27T10:48:51.452Z,934.56
2018-11-27T10:49:51.407Z,934.59
2018-11-27T10:50:51.358Z,934.65
2018-11-27T10:51:51.317Z,934.63
2018-11-27T10:52:51.286Z,934.61
2018-11-27T10:53:51.224Z,934.56
2018-11-27T10:54:51.180Z,934.60
2018-11-27T10:55:51.141Z,934.63
2018-11-27T10:56:51.098Z,934.57
2018-11-27T10:57:51.049Z,934.54
2018-11-27T10:58:51.006Z,934.57
2018-11-27T10:59:50.974Z,934.56
2018-11-27T11:00:50.912Z,934.54
2018-11-27T11:01:50.871Z,934.53
2018-11-27T11:02:50.823Z,934.57
2018-11-27T11:03:50.777Z,934.65
2018-11-27T11:04:50.731Z,934.62
2018-11-27T11:05:50.685Z,934.57
2018-11-27T11:06:50.643Z,934.58
2018-11-27T11:07:50.596Z,934.66
2018-11-27T11:08:50.549Z,934.70
2018-11-27T11:09:50.483Z,934.65
2018-11-27T11:10:50.472Z,934.63
2018-11-27T11:11:50.393Z,934.64
2018-11-27T11:12:50.369Z,934.65
2018-11-27T11:13:50.320Z,934.63
2018-11-27T11:14:50.267Z,934.74
2018-11-27T11:15:50.256Z,934.67
2018-11-27T11:16:50.187Z,934.72
2018-11-27T11:17:50.133Z,934.72
2018-11-27T11:18:50.091Z,934.75
2018-11-27T11:19:50.050Z,934.73
2018-11-27T11:20:50.003Z,934.69
2018-11-27T11:21:49.961Z,934.67
2018-11-27T11:22:49.900Z,934.70
2018-11-27T11:23:49.858Z,934.72
2018-11-27T11:24:49.821Z,934.74
2018-11-27T11:25:49.776Z,934.70
2018-11-27T11:26:49.710Z,934.68
2018-11-27T11:27:49.686Z,934.68
2018-11-27T11:28:49.634Z,934.72
2018-11-27T11:29:49.599Z,934.69
2018-11-27T11:30:49.542Z,934.70
2018-11-27T11:31:49.495Z,934.70
2018-11-27T11:32:49.461Z,934.67
2018-11-27T11:33:49.394Z,934.63
2018-11-27T11:34:49.358Z,934.67
2018-11-27T11:35:49.306Z,934.67
2018-11-27T11:36:49.278Z,934.64
2018-11-27T11:37:49.211Z,934.62
2018-11-27T11:38:49.180Z,934.63
2018-11-27T11:39:49.127Z,934.66
2018-11-27T11:40:49.074Z,934.70
2018-11-27T11:41:49.051Z,934.68
2018-11-27T11:42:49.007Z,934.62
2018-11-27T11:43:48.954Z,934.63
2018-11-27T11:44:48.895Z,934.66
2018-11-27T11:45:48.850Z,934.65
2018-11-27T11:46:48.807Z,934.62
2018-11-27T11:47:48.789Z,934.66
2018-11-27T11:48:48.723Z,934.60
2018-11-27T11:49:48.690Z,934.61
2018-11-27T11:50:48.637Z,934.59
2018-11-27T11:51:48.590Z,934.55
2018-11-27T11:52:48.545Z,934.58
2018-11-27T11:53:48.501Z,934.58
2018-11-27T11:54:48.445Z,934.70
2018-11-27T11:55:48.399Z,934.74
2018-11-27T11:56:49.323Z,934.74
2018-11-27T11:57:48.320Z,934.73
2018-11-27T11:58:48.280Z,934.71
2018-11-27T11:59:48.227Z,934.69
2018-11-27T12:00:48.194Z,934.68
2018-11-27T12:01:48.217Z,934.70
2018-11-27T12:02:48.119Z,934.65
2018-11-27T12:03:48.054Z,934.63
2018-11-27T12:04:48.009Z,934.59
2018-11-27T12:05:47.961Z,934.58
2018-11-27T12:06:47.904Z,934.67
2018-11-27T12:07:47.888Z,934.57
2018-11-27T12:08:47.815Z,934.56
2018-11-27T12:09:47.786Z,934.59
2018-11-27T12:10:47.723Z,934.54
2018-11-27T12:11:47.678Z,934.55
2018-11-27T12:12:47.642Z,934.57
2018-11-27T12:13:47.602Z,934.56
2018-11-27T12:14:47.573Z,934.56
2018-11-27T12:15:47.513Z,934.55
2018-11-27T12:16:47.461Z,934.50
2018-11-27T12:17:47.412Z,934.55
2018-11-27T12:18:47.388Z,934.56
2018-11-27T12:19:47.851Z,934.52
2018-11-27T12:20:47.304Z,934.55
2018-11-27T12:21:47.244Z,934.52
2018-11-27T12:22:47.187Z,934.50
2018-11-27T12:23:47.140Z,934.49
2018-11-27T12:24:47.109Z,934.49
2018-11-27T12:25:47.050Z,934.49
2018-11-27T12:26:47.016Z,934.50
2018-11-27T12:27:46.990Z,934.52